sensor_id;sensor_type;location;lat;lon;timestamp;temperature;humidity
5429;DHT22;2737;52.386;9.980;2023-07-13T00:01:49;18.60;99.90
5429;DHT22;2737;52.386;9.980;2023-07-13T00:04:18;18.50;99.90
5429;DHT22;2737;52.386;9.980;2023-07-13T00:06:45;18.50;99.90
5429;DHT22;2737;52.386;9.980;2023-07-13T00:09:13;18.50;99.90
5429;DHT22;2737;52.386;9.980;2023-07-13T00:11:40;18.40;99.90
5429;DHT22;2737;52.386;9.980;2023-07-13T00:14:08;18.40;99.90
5429;DHT22;2737;52.386;9.980;2023-07-13T00:16:37;18.40;99.90
5429;DHT22;2737;52.386;9.980;2023-07-13T00:19:05;18.40;99.90
5429;DHT22;2737;52.386;9.980;2023-07-13T00:21:32;18.40;99.90
5429;DHT22;2737;52.386;9.980;2023-07-13T00:24:00;18.40;99.90
5429;DHT22;2737;52.386;9.980;2023-07-13T00:26:28;18.30;99.90
5429;DHT22;2737;52.386;9.980;2023-07-13T00:28:58;18.30;99.90
5429;DHT22;2737;52.386;9.980;2023-07-13T00:31:25;18.20;99.90
5429;DHT22;2737;52.386;9.980;2023-07-13T00:33:52;18.10;99.90
5429;DHT22;2737;52.386;9.980;2023-07-13T00:36:20;18.10;99.90
5429;DHT22;2737;52.386;9.980;2023-07-13T00:38:47;18.10;99.90
5429;DHT22;2737;52.386;9.980;2023-07-13T00:41:14;18.00;99.90
5429;DHT22;2737;52.386;9.980;2023-07-13T00:43:41;18.00;99.90
5429;DHT22;2737;52.386;9.980;2023-07-13T00:46:24;17.90;99.90
5429;DHT22;2737;52.386;9.980;2023-07-13T00:48:53;17.90;99.90
5429;DHT22;2737;52.386;9.980;2023-07-13T00:51:27;17.90;99.90
5429;DHT22;2737;52.386;9.980;2023-07-13T00:53:57;17.90;99.90
5429;DHT22;2737;52.386;9.980;2023-07-13T00:56:25;17.90;99.90
5429;DHT22;2737;52.386;9.980;2023-07-13T00:58:52;17.80;99.90
5429;DHT22;2737;52.386;9.980;2023-07-13T01:01:19;17.80;99.90
5429;DHT22;2737;52.386;9.980;2023-07-13T01:03:46;17.80;99.90
5429;DHT22;2737;52.386;9.980;2023-07-13T01:06:14;17.90;99.90
5429;DHT22;2737;52.386;9.980;2023-07-13T01:08:44;17.90;99.90
5429;DHT22;2737;52.386;9.980;2023-07-13T01:11:11;17.90;99.90
5429;DHT22;2737;52.386;9.980;2023-07-13T01:13:38;17.90;99.90
5429;DHT22;2737;52.386;9.980;2023-07-13T01:16:13;17.90;99.90
5429;DHT22;2737;52.386;9.980;2023-07-13T01:18:41;17.90;99.90
5429;DHT22;2737;52.386;9.980;2023-07-13T01:21:10;17.90;99.90
5429;DHT22;2737;52.386;9.980;2023-07-13T01:23:36;17.90;99.90
5429;DHT22;2737;52.386;9.980;2023-07-13T01:26:04;17.80;99.90
5429;DHT22;2737;52.386;9.980;2023-07-13T01:28:31;17.80;99.90
5429;DHT22;2737;52.386;9.980;2023-07-13T01:31:03;17.80;99.90
5429;DHT22;2737;52.386;9.980;2023-07-13T01:33:30;17.80;99.90
5429;DHT22;2737;52.386;9.980;2023-07-13T01:35:57;17.80;99.90
5429;DHT22;2737;52.386;9.980;2023-07-13T01:38:26;17.80;99.90
5429;DHT22;2737;52.386;9.980;2023-07-13T01:40:53;17.70;99.90
5429;DHT22;2737;52.386;9.980;2023-07-13T01:43:20;17.70;99.90
5429;DHT22;2737;52.386;9.980;2023-07-13T01:45:48;17.70;99.90
5429;DHT22;2737;52.386;9.980;2023-07-13T01:48:15;17.60;99.90
5429;DHT22;2737;52.386;9.980;2023-07-13T01:50:42;17.60;99.90
5429;DHT22;2737;52.386;9.980;2023-07-13T01:53:09;17.50;99.90
5429;DHT22;2737;52.386;9.980;2023-07-13T01:55:37;17.50;99.90
5429;DHT22;2737;52.386;9.980;2023-07-13T01:58:05;17.50;99.90
5429;DHT22;2737;52.386;9.980;2023-07-13T02:00:32;17.50;99.90
5429;DHT22;2737;52.386;9.980;2023-07-13T02:02:59;17.50;99.90
5429;DHT22;2737;52.386;9.980;2023-07-13T02:05:26;17.40;99.90
5429;DHT22;2737;52.386;9.980;2023-07-13T02:07:53;17.40;99.90
5429;DHT22;2737;52.386;9.980;2023-07-13T02:10:21;17.30;99.90
5429;DHT22;2737;52.386;9.980;2023-07-13T02:12:50;17.20;99.90
5429;DHT22;2737;52.386;9.980;2023-07-13T02:15:18;17.20;99.90
5429;DHT22;2737;52.386;9.980;2023-07-13T02:17:46;17.10;99.90
5429;DHT22;2737;52.386;9.980;2023-07-13T02:20:13;17.10;99.90
5429;DHT22;2737;52.386;9.980;2023-07-13T02:22:40;17.10;99.90
5429;DHT22;2737;52.386;9.980;2023-07-13T02:25:07;17.10;99.90
5429;DHT22;2737;52.386;9.980;2023-07-13T02:27:34;17.00;99.90
5429;DHT22;2737;52.386;9.980;2023-07-13T02:30:03;16.90;99.90
5429;DHT22;2737;52.386;9.980;2023-07-13T02:32:30;16.90;99.90
5429;DHT22;2737;52.386;9.980;2023-07-13T02:34:57;16.90;99.90
5429;DHT22;2737;52.386;9.980;2023-07-13T02:37:24;16.80;99.90
5429;DHT22;2737;52.386;9.980;2023-07-13T02:39:51;16.80;99.90
5429;DHT22;2737;52.386;9.980;2023-07-13T02:42:19;16.80;99.90
5429;DHT22;2737;52.386;9.980;2023-07-13T02:44:46;16.70;99.90
5429;DHT22;2737;52.386;9.980;2023-07-13T02:47:16;16.70;99.90
5429;DHT22;2737;52.386;9.980;2023-07-13T02:49:43;16.70;99.90
5429;DHT22;2737;52.386;9.980;2023-07-13T02:52:10;16.60;99.90
5429;DHT22;2737;52.386;9.980;2023-07-13T02:54:37;16.60;99.90
5429;DHT22;2737;52.386;9.980;2023-07-13T02:57:05;16.60;99.90
5429;DHT22;2737;52.386;9.980;2023-07-13T02:59:32;16.50;99.90
5429;DHT22;2737;52.386;9.980;2023-07-13T03:02:00;16.50;99.90
5429;DHT22;2737;52.386;9.980;2023-07-13T03:04:29;16.50;99.90
5429;DHT22;2737;52.386;9.980;2023-07-13T03:06:56;16.50;99.90
5429;DHT22;2737;52.386;9.980;2023-07-13T03:09:24;16.40;99.90
5429;DHT22;2737;52.386;9.980;2023-07-13T03:11:52;16.40;99.90
5429;DHT22;2737;52.386;9.980;2023-07-13T03:14:20;16.30;99.90
5429;DHT22;2737;52.386;9.980;2023-07-13T03:16:47;16.30;99.90
5429;DHT22;2737;52.386;9.980;2023-07-13T03:19:14;16.30;99.90
5429;DHT22;2737;52.386;9.980;2023-07-13T03:21:42;16.30;99.90
5429;DHT22;2737;52.386;9.980;2023-07-13T03:24:09;16.30;99.90
5429;DHT22;2737;52.386;9.980;2023-07-13T03:26:37;16.30;99.90
5429;DHT22;2737;52.386;9.980;2023-07-13T03:29:04;16.30;99.90
5429;DHT22;2737;52.386;9.980;2023-07-13T03:31:34;16.20;99.90
5429;DHT22;2737;52.386;9.980;2023-07-13T03:34:01;16.30;99.90
5429;DHT22;2737;52.386;9.980;2023-07-13T03:36:29;16.30;99.90
5429;DHT22;2737;52.386;9.980;2023-07-13T03:39:02;16.20;99.90
5429;DHT22;2737;52.386;9.980;2023-07-13T03:41:29;16.30;99.90
5429;DHT22;2737;52.386;9.980;2023-07-13T03:43:57;16.30;99.90
5429;DHT22;2737;52.386;9.980;2023-07-13T03:46:24;16.30;99.90
5429;DHT22;2737;52.386;9.980;2023-07-13T03:48:51;16.30;99.90
5429;DHT22;2737;52.386;9.980;2023-07-13T03:51:19;16.20;99.90
5429;DHT22;2737;52.386;9.980;2023-07-13T03:53:47;16.20;99.90
5429;DHT22;2737;52.386;9.980;2023-07-13T03:56:17;16.20;99.90
5429;DHT22;2737;52.386;9.980;2023-07-13T03:58:45;16.20;99.90
5429;DHT22;2737;52.386;9.980;2023-07-13T04:01:14;16.20;99.90
5429;DHT22;2737;52.386;9.980;2023-07-13T04:03:42;16.10;99.90
5429;DHT22;2737;52.386;9.980;2023-07-13T04:06:14;16.20;99.90
5429;DHT22;2737;52.386;9.980;2023-07-13T04:08:47;16.20;99.90
5429;DHT22;2737;52.386;9.980;2023-07-13T04:11:17;16.20;99.90
5429;DHT22;2737;52.386;9.980;2023-07-13T04:13:44;16.20;99.90
5429;DHT22;2737;52.386;9.980;2023-07-13T04:16:11;16.20;99.90
5429;DHT22;2737;52.386;9.980;2023-07-13T04:18:38;16.20;99.90
5429;DHT22;2737;52.386;9.980;2023-07-13T04:21:07;16.30;99.90
5429;DHT22;2737;52.386;9.980;2023-07-13T04:23:34;16.40;99.90
5429;DHT22;2737;52.386;9.980;2023-07-13T04:26:01;16.40;99.90
5429;DHT22;2737;52.386;9.980;2023-07-13T04:28:30;16.50;99.90
5429;DHT22;2737;52.386;9.980;2023-07-13T04:30:57;16.50;99.90
5429;DHT22;2737;52.386;9.980;2023-07-13T04:33:24;16.60;99.90
5429;DHT22;2737;52.386;9.980;2023-07-13T04:35:53;16.70;99.90
5429;DHT22;2737;52.386;9.980;2023-07-13T04:38:22;16.80;99.90
5429;DHT22;2737;52.386;9.980;2023-07-13T04:40:50;16.90;99.90
5429;DHT22;2737;52.386;9.980;2023-07-13T04:43:18;17.00;99.90
5429;DHT22;2737;52.386;9.980;2023-07-13T04:45:46;17.00;99.90
5429;DHT22;2737;52.386;9.980;2023-07-13T04:48:13;17.00;99.90
5429;DHT22;2737;52.386;9.980;2023-07-13T04:50:40;17.00;99.90
5429;DHT22;2737;52.386;9.980;2023-07-13T04:53:09;16.90;99.90
5429;DHT22;2737;52.386;9.980;2023-07-13T04:55:37;16.90;99.90
5429;DHT22;2737;52.386;9.980;2023-07-13T04:58:04;16.90;99.90
5429;DHT22;2737;52.386;9.980;2023-07-13T05:00:32;16.90;99.90
5429;DHT22;2737;52.386;9.980;2023-07-13T05:03:00;16.90;99.90
5429;DHT22;2737;52.386;9.980;2023-07-13T05:05:27;16.90;99.90
5429;DHT22;2737;52.386;9.980;2023-07-13T05:07:54;17.00;99.90
5429;DHT22;2737;52.386;9.980;2023-07-13T05:10:22;17.00;99.90
5429;DHT22;2737;52.386;9.980;2023-07-13T05:12:49;17.20;99.90
5429;DHT22;2737;52.386;9.980;2023-07-13T05:15:16;17.20;99.90
5429;DHT22;2737;52.386;9.980;2023-07-13T05:17:46;17.30;99.90
5429;DHT22;2737;52.386;9.980;2023-07-13T05:20:16;17.40;99.90
5429;DHT22;2737;52.386;9.980;2023-07-13T05:22:44;17.40;99.90
5429;DHT22;2737;52.386;9.980;2023-07-13T05:25:12;17.60;99.90
5429;DHT22;2737;52.386;9.980;2023-07-13T05:27:40;17.60;99.90
5429;DHT22;2737;52.386;9.980;2023-07-13T05:30:07;17.70;99.90
5429;DHT22;2737;52.386;9.980;2023-07-13T05:32:36;17.70;99.90
5429;DHT22;2737;52.386;9.980;2023-07-13T05:35:04;17.90;99.90
5429;DHT22;2737;52.386;9.980;2023-07-13T05:37:33;17.90;99.90
5429;DHT22;2737;52.386;9.980;2023-07-13T05:40:00;18.00;99.90
5429;DHT22;2737;52.386;9.980;2023-07-13T05:42:27;18.00;99.90
5429;DHT22;2737;52.386;9.980;2023-07-13T05:44:54;18.10;99.90
5429;DHT22;2737;52.386;9.980;2023-07-13T05:47:21;18.00;99.90
5429;DHT22;2737;52.386;9.980;2023-07-13T05:49:48;18.10;99.90
5429;DHT22;2737;52.386;9.980;2023-07-13T05:52:15;18.20;99.90
5429;DHT22;2737;52.386;9.980;2023-07-13T05:54:43;18.20;99.90
5429;DHT22;2737;52.386;9.980;2023-07-13T05:57:10;18.20;99.90
5429;DHT22;2737;52.386;9.980;2023-07-13T05:59:37;18.10;99.90
5429;DHT22;2737;52.386;9.980;2023-07-13T06:02:05;18.10;99.90
5429;DHT22;2737;52.386;9.980;2023-07-13T06:04:35;18.00;99.90
5429;DHT22;2737;52.386;9.980;2023-07-13T06:07:02;18.00;99.90
5429;DHT22;2737;52.386;9.980;2023-07-13T06:09:29;18.10;99.90
5429;DHT22;2737;52.386;9.980;2023-07-13T06:11:57;18.20;99.90
5429;DHT22;2737;52.386;9.980;2023-07-13T06:14:25;18.40;99.90
5429;DHT22;2737;52.386;9.980;2023-07-13T06:16:52;18.40;99.90
5429;DHT22;2737;52.386;9.980;2023-07-13T06:19:19;18.40;99.90
5429;DHT22;2737;52.386;9.980;2023-07-13T06:21:46;18.30;99.90
5429;DHT22;2737;52.386;9.980;2023-07-13T06:24:13;18.30;99.90
5429;DHT22;2737;52.386;9.980;2023-07-13T06:26:40;18.40;99.90
5429;DHT22;2737;52.386;9.980;2023-07-13T06:29:09;18.50;99.90
5429;DHT22;2737;52.386;9.980;2023-07-13T06:31:36;18.50;99.90
5429;DHT22;2737;52.386;9.980;2023-07-13T06:34:03;18.70;99.90
5429;DHT22;2737;52.386;9.980;2023-07-13T06:36:30;18.80;99.90
5429;DHT22;2737;52.386;9.980;2023-07-13T06:38:57;18.90;99.90
5429;DHT22;2737;52.386;9.980;2023-07-13T06:41:24;19.10;99.90
5429;DHT22;2737;52.386;9.980;2023-07-13T06:43:51;19.40;99.90
5429;DHT22;2737;52.386;9.980;2023-07-13T06:46:22;19.50;99.90
5429;DHT22;2737;52.386;9.980;2023-07-13T06:48:49;19.60;99.90
5429;DHT22;2737;52.386;9.980;2023-07-13T06:51:16;19.90;99.90
5429;DHT22;2737;52.386;9.980;2023-07-13T06:53:43;20.30;99.90
5429;DHT22;2737;52.386;9.980;2023-07-13T06:56:10;20.30;99.90
5429;DHT22;2737;52.386;9.980;2023-07-13T06:58:37;20.10;99.90
5429;DHT22;2737;52.386;9.980;2023-07-13T07:01:05;20.20;99.90
5429;DHT22;2737;52.386;9.980;2023-07-13T07:03:33;20.20;99.90
5429;DHT22;2737;52.386;9.980;2023-07-13T07:06:01;20.50;99.90
5429;DHT22;2737;52.386;9.980;2023-07-13T07:08:28;20.90;99.90
5429;DHT22;2737;52.386;9.980;2023-07-13T07:10:55;21.30;99.90
5429;DHT22;2737;52.386;9.980;2023-07-13T07:13:22;21.30;99.90
5429;DHT22;2737;52.386;9.980;2023-07-13T07:15:50;21.10;99.90
5429;DHT22;2737;52.386;9.980;2023-07-13T07:18:18;20.80;99.90
5429;DHT22;2737;52.386;9.980;2023-07-13T07:20:46;20.50;99.90
5429;DHT22;2737;52.386;9.980;2023-07-13T07:23:13;20.30;99.90
5429;DHT22;2737;52.386;9.980;2023-07-13T07:25:40;20.30;99.90
5429;DHT22;2737;52.386;9.980;2023-07-13T07:28:09;20.50;99.90
5429;DHT22;2737;52.386;9.980;2023-07-13T07:30:36;20.40;99.90
5429;DHT22;2737;52.386;9.980;2023-07-13T07:33:03;20.20;99.90
5429;DHT22;2737;52.386;9.980;2023-07-13T07:35:31;20.00;99.90
5429;DHT22;2737;52.386;9.980;2023-07-13T07:37:59;20.00;99.90
5429;DHT22;2737;52.386;9.980;2023-07-13T07:40:26;20.10;99.90
5429;DHT22;2737;52.386;9.980;2023-07-13T07:42:53;20.40;99.90
5429;DHT22;2737;52.386;9.980;2023-07-13T07:45:20;20.40;99.90
5429;DHT22;2737;52.386;9.980;2023-07-13T07:47:48;20.40;99.90
5429;DHT22;2737;52.386;9.980;2023-07-13T07:50:16;20.10;99.90
5429;DHT22;2737;52.386;9.980;2023-07-13T07:52:45;20.20;99.90
5429;DHT22;2737;52.386;9.980;2023-07-13T07:55:14;20.20;99.90
5429;DHT22;2737;52.386;9.980;2023-07-13T07:57:41;20.30;99.90
5429;DHT22;2737;52.386;9.980;2023-07-13T08:00:08;20.60;99.90
5429;DHT22;2737;52.386;9.980;2023-07-13T08:02:36;20.90;99.90
5429;DHT22;2737;52.386;9.980;2023-07-13T08:05:03;20.90;99.90
5429;DHT22;2737;52.386;9.980;2023-07-13T08:07:30;20.80;99.90
5429;DHT22;2737;52.386;9.980;2023-07-13T08:09:58;20.90;99.90
5429;DHT22;2737;52.386;9.980;2023-07-13T08:12:26;20.70;99.90
5429;DHT22;2737;52.386;9.980;2023-07-13T08:14:53;20.50;99.90
5429;DHT22;2737;52.386;9.980;2023-07-13T08:17:23;20.60;99.90
5429;DHT22;2737;52.386;9.980;2023-07-13T08:19:50;20.50;99.90
5429;DHT22;2737;52.386;9.980;2023-07-13T08:22:17;20.50;99.90
5429;DHT22;2737;52.386;9.980;2023-07-13T08:24:44;20.40;99.90
5429;DHT22;2737;52.386;9.980;2023-07-13T08:27:13;20.40;99.90
5429;DHT22;2737;52.386;9.980;2023-07-13T08:29:41;20.50;99.90
5429;DHT22;2737;52.386;9.980;2023-07-13T08:32:08;20.70;99.90
5429;DHT22;2737;52.386;9.980;2023-07-13T08:34:36;20.60;99.90
5429;DHT22;2737;52.386;9.980;2023-07-13T08:37:03;20.50;99.90
5429;DHT22;2737;52.386;9.980;2023-07-13T08:39:31;20.50;99.90
5429;DHT22;2737;52.386;9.980;2023-07-13T08:42:04;20.50;99.90
5429;DHT22;2737;52.386;9.980;2023-07-13T08:44:48;20.50;99.90
5429;DHT22;2737;52.386;9.980;2023-07-13T08:47:20;20.70;99.90
5429;DHT22;2737;52.386;9.980;2023-07-13T08:49:48;20.60;99.90
5429;DHT22;2737;52.386;9.980;2023-07-13T08:52:26;20.40;99.90
5429;DHT22;2737;52.386;9.980;2023-07-13T08:54:57;20.50;99.90
5429;DHT22;2737;52.386;9.980;2023-07-13T08:57:29;20.60;99.90
5429;DHT22;2737;52.386;9.980;2023-07-13T08:59:59;20.40;99.90
5429;DHT22;2737;52.386;9.980;2023-07-13T09:02:28;20.50;99.90
5429;DHT22;2737;52.386;9.980;2023-07-13T09:05:02;20.50;99.90
5429;DHT22;2737;52.386;9.980;2023-07-13T09:07:48;20.60;99.90
5429;DHT22;2737;52.386;9.980;2023-07-13T09:10:21;20.60;99.90
5429;DHT22;2737;52.386;9.980;2023-07-13T09:13:00;20.80;99.90
5429;DHT22;2737;52.386;9.980;2023-07-13T09:15:36;20.80;99.90
5429;DHT22;2737;52.386;9.980;2023-07-13T09:18:08;20.60;99.90
5429;DHT22;2737;52.386;9.980;2023-07-13T09:20:41;20.40;99.90
5429;DHT22;2737;52.386;9.980;2023-07-13T09:23:14;20.30;99.90
5429;DHT22;2737;52.386;9.980;2023-07-13T09:25:46;20.40;99.90
5429;DHT22;2737;52.386;9.980;2023-07-13T09:28:18;20.70;99.90
5429;DHT22;2737;52.386;9.980;2023-07-13T09:30:54;20.90;99.90
5429;DHT22;2737;52.386;9.980;2023-07-13T09:33:22;21.00;99.90
5429;DHT22;2737;52.386;9.980;2023-07-13T09:35:50;20.70;99.90
5429;DHT22;2737;52.386;9.980;2023-07-13T09:38:18;21.00;99.90
5429;DHT22;2737;52.386;9.980;2023-07-13T09:41:11;21.50;99.90
5429;DHT22;2737;52.386;9.980;2023-07-13T09:46:47;21.70;99.90
5429;DHT22;2737;52.386;9.980;2023-07-13T09:49:18;21.70;99.90
5429;DHT22;2737;52.386;9.980;2023-07-13T09:51:46;21.70;99.90
5429;DHT22;2737;52.386;9.980;2023-07-13T09:54:20;21.70;99.90
5429;DHT22;2737;52.386;9.980;2023-07-13T09:56:48;21.90;99.90
5429;DHT22;2737;52.386;9.980;2023-07-13T09:59:21;21.90;99.90
5429;DHT22;2737;52.386;9.980;2023-07-13T10:01:51;22.10;99.90
5429;DHT22;2737;52.386;9.980;2023-07-13T10:04:19;22.10;99.90
5429;DHT22;2737;52.386;9.980;2023-07-13T10:06:46;22.40;99.90
5429;DHT22;2737;52.386;9.980;2023-07-13T10:09:16;22.50;99.90
5429;DHT22;2737;52.386;9.980;2023-07-13T10:11:44;22.10;99.90
5429;DHT22;2737;52.386;9.980;2023-07-13T10:14:14;21.80;99.90
5429;DHT22;2737;52.386;9.980;2023-07-13T10:16:43;21.90;99.90
5429;DHT22;2737;52.386;9.980;2023-07-13T10:19:15;22.00;99.90
5429;DHT22;2737;52.386;9.980;2023-07-13T10:21:50;22.30;99.90
5429;DHT22;2737;52.386;9.980;2023-07-13T10:24:22;22.20;99.90
5429;DHT22;2737;52.386;9.980;2023-07-13T10:27:02;22.20;99.90
5429;DHT22;2737;52.386;9.980;2023-07-13T10:29:37;22.00;99.90
5429;DHT22;2737;52.386;9.980;2023-07-13T10:32:09;22.10;99.90
5429;DHT22;2737;52.386;9.980;2023-07-13T10:34:39;22.40;99.90
5429;DHT22;2737;52.386;9.980;2023-07-13T10:37:07;22.60;99.90
5429;DHT22;2737;52.386;9.980;2023-07-13T10:39:42;22.10;99.90
5429;DHT22;2737;52.386;9.980;2023-07-13T10:42:13;22.00;99.90
5429;DHT22;2737;52.386;9.980;2023-07-13T10:44:42;21.80;99.90
5429;DHT22;2737;52.386;9.980;2023-07-13T10:47:14;22.00;99.90
5429;DHT22;2737;52.386;9.980;2023-07-13T10:49:46;22.30;99.90
5429;DHT22;2737;52.386;9.980;2023-07-13T10:52:40;22.50;99.90
5429;DHT22;2737;52.386;9.980;2023-07-13T10:55:30;22.80;99.90
5429;DHT22;2737;52.386;9.980;2023-07-13T10:58:00;23.00;99.90
5429;DHT22;2737;52.386;9.980;2023-07-13T11:00:31;23.00;99.90
5429;DHT22;2737;52.386;9.980;2023-07-13T11:03:00;23.00;99.90
5429;DHT22;2737;52.386;9.980;2023-07-13T11:05:32;23.10;99.90
5429;DHT22;2737;52.386;9.980;2023-07-13T11:08:13;23.20;99.90
5429;DHT22;2737;52.386;9.980;2023-07-13T11:10:50;23.20;99.90
5429;DHT22;2737;52.386;9.980;2023-07-13T11:13:56;23.20;99.90
5429;DHT22;2737;52.386;9.980;2023-07-13T11:16:51;23.50;99.90
5429;DHT22;2737;52.386;9.980;2023-07-13T11:19:38;23.50;99.90
5429;DHT22;2737;52.386;9.980;2023-07-13T11:22:16;23.40;99.90
5429;DHT22;2737;52.386;9.980;2023-07-13T11:24:58;23.30;99.90
5429;DHT22;2737;52.386;9.980;2023-07-13T11:27:42;23.70;99.90
5429;DHT22;2737;52.386;9.980;2023-07-13T11:30:22;23.80;99.90
5429;DHT22;2737;52.386;9.980;2023-07-13T11:32:51;23.30;99.90
5429;DHT22;2737;52.386;9.980;2023-07-13T11:35:26;23.10;99.90
5429;DHT22;2737;52.386;9.980;2023-07-13T11:37:55;22.90;99.90
5429;DHT22;2737;52.386;9.980;2023-07-13T11:40:24;22.70;99.90
5429;DHT22;2737;52.386;9.980;2023-07-13T11:42:59;22.60;99.90
5429;DHT22;2737;52.386;9.980;2023-07-13T11:45:27;22.80;99.90
5429;DHT22;2737;52.386;9.980;2023-07-13T11:47:54;23.00;99.90
5429;DHT22;2737;52.386;9.980;2023-07-13T11:50:24;23.10;99.90
5429;DHT22;2737;52.386;9.980;2023-07-13T11:52:52;22.80;99.90
5429;DHT22;2737;52.386;9.980;2023-07-13T11:55:23;22.60;99.90
5429;DHT22;2737;52.386;9.980;2023-07-13T11:57:53;22.80;99.90
5429;DHT22;2737;52.386;9.980;2023-07-13T12:00:29;23.10;99.90
5429;DHT22;2737;52.386;9.980;2023-07-13T12:03:00;23.20;99.90
5429;DHT22;2737;52.386;9.980;2023-07-13T12:05:28;23.30;99.90
5429;DHT22;2737;52.386;9.980;2023-07-13T12:07:56;23.40;99.90
5429;DHT22;2737;52.386;9.980;2023-07-13T12:10:26;23.40;99.90
5429;DHT22;2737;52.386;9.980;2023-07-13T12:12:56;23.50;99.90
5429;DHT22;2737;52.386;9.980;2023-07-13T12:15:28;23.60;99.90
5429;DHT22;2737;52.386;9.980;2023-07-13T12:17:57;23.90;99.90
5429;DHT22;2737;52.386;9.980;2023-07-13T12:20:26;24.00;99.90
5429;DHT22;2737;52.386;9.980;2023-07-13T12:22:53;24.10;99.90
5429;DHT22;2737;52.386;9.980;2023-07-13T12:25:22;24.00;99.90
5429;DHT22;2737;52.386;9.980;2023-07-13T12:27:51;23.80;99.90
5429;DHT22;2737;52.386;9.980;2023-07-13T12:30:27;24.20;99.90
5429;DHT22;2737;52.386;9.980;2023-07-13T12:32:59;24.20;98.70
5429;DHT22;2737;52.386;9.980;2023-07-13T12:35:29;24.00;99.00
5429;DHT22;2737;52.386;9.980;2023-07-13T12:38:01;23.80;99.30
5429;DHT22;2737;52.386;9.980;2023-07-13T12:40:32;23.60;99.90
5429;DHT22;2737;52.386;9.980;2023-07-13T12:43:02;23.20;99.90
5429;DHT22;2737;52.386;9.980;2023-07-13T12:45:30;23.20;99.90
5429;DHT22;2737;52.386;9.980;2023-07-13T12:47:58;23.10;99.90
5429;DHT22;2737;52.386;9.980;2023-07-13T12:50:31;22.90;99.90
5429;DHT22;2737;52.386;9.980;2023-07-13T12:53:03;22.80;99.90
5429;DHT22;2737;52.386;9.980;2023-07-13T12:55:41;22.90;99.90
5429;DHT22;2737;52.386;9.980;2023-07-13T12:58:17;23.10;99.90
5429;DHT22;2737;52.386;9.980;2023-07-13T13:00:50;23.40;99.90
5429;DHT22;2737;52.386;9.980;2023-07-13T13:03:23;23.80;99.90
5429;DHT22;2737;52.386;9.980;2023-07-13T13:05:57;24.10;99.90
5429;DHT22;2737;52.386;9.980;2023-07-13T13:08:26;24.10;99.90
5429;DHT22;2737;52.386;9.980;2023-07-13T13:10:53;24.20;99.90
5429;DHT22;2737;52.386;9.980;2023-07-13T13:13:21;24.10;99.90
5429;DHT22;2737;52.386;9.980;2023-07-13T13:15:48;23.80;99.90
5429;DHT22;2737;52.386;9.980;2023-07-13T13:18:17;23.60;99.90
5429;DHT22;2737;52.386;9.980;2023-07-13T13:20:45;23.40;99.90
5429;DHT22;2737;52.386;9.980;2023-07-13T13:23:13;23.20;99.90
5429;DHT22;2737;52.386;9.980;2023-07-13T13:25:43;22.90;99.90
5429;DHT22;2737;52.386;9.980;2023-07-13T13:28:15;22.70;99.90
5429;DHT22;2737;52.386;9.980;2023-07-13T13:30:45;22.50;99.90
5429;DHT22;2737;52.386;9.980;2023-07-13T13:33:17;22.40;99.90
5429;DHT22;2737;52.386;9.980;2023-07-13T13:35:44;21.90;99.90
5429;DHT22;2737;52.386;9.980;2023-07-13T13:38:12;21.30;99.90
5429;DHT22;2737;52.386;9.980;2023-07-13T13:40:40;20.90;99.90
5429;DHT22;2737;52.386;9.980;2023-07-13T13:43:14;20.60;99.90
5429;DHT22;2737;52.386;9.980;2023-07-13T13:45:42;20.50;99.90
5429;DHT22;2737;52.386;9.980;2023-07-13T13:48:16;20.50;99.90
5429;DHT22;2737;52.386;9.980;2023-07-13T13:50:44;20.50;99.90
5429;DHT22;2737;52.386;9.980;2023-07-13T13:53:12;20.40;99.90
5429;DHT22;2737;52.386;9.980;2023-07-13T13:55:39;20.40;99.90
5429;DHT22;2737;52.386;9.980;2023-07-13T13:58:08;19.90;99.90
5429;DHT22;2737;52.386;9.980;2023-07-13T14:00:36;19.80;99.90
5429;DHT22;2737;52.386;9.980;2023-07-13T14:03:04;19.50;99.90
5429;DHT22;2737;52.386;9.980;2023-07-13T14:05:34;19.30;99.90
5429;DHT22;2737;52.386;9.980;2023-07-13T14:08:01;19.20;99.90
5429;DHT22;2737;52.386;9.980;2023-07-13T14:10:28;19.20;99.90
5429;DHT22;2737;52.386;9.980;2023-07-13T14:12:56;18.70;99.90
5429;DHT22;2737;52.386;9.980;2023-07-13T14:15:26;18.80;99.90
5429;DHT22;2737;52.386;9.980;2023-07-13T14:17:54;18.70;99.90
5429;DHT22;2737;52.386;9.980;2023-07-13T14:20:24;18.70;99.90
5429;DHT22;2737;52.386;9.980;2023-07-13T14:22:53;18.40;99.90
5429;DHT22;2737;52.386;9.980;2023-07-13T14:25:21;18.70;99.90
5429;DHT22;2737;52.386;9.980;2023-07-13T14:27:51;18.90;99.90
5429;DHT22;2737;52.386;9.980;2023-07-13T14:30:22;18.80;99.90
5429;DHT22;2737;52.386;9.980;2023-07-13T14:32:49;18.60;99.90
5429;DHT22;2737;52.386;9.980;2023-07-13T14:35:21;18.80;99.90
5429;DHT22;2737;52.386;9.980;2023-07-13T14:37:50;19.10;99.90
5429;DHT22;2737;52.386;9.980;2023-07-13T14:40:23;19.30;99.90
5429;DHT22;2737;52.386;9.980;2023-07-13T14:42:51;19.40;99.90
5429;DHT22;2737;52.386;9.980;2023-07-13T14:45:20;19.30;99.90
5429;DHT22;2737;52.386;9.980;2023-07-13T14:47:48;19.50;99.90
5429;DHT22;2737;52.386;9.980;2023-07-13T14:50:17;19.70;99.90
5429;DHT22;2737;52.386;9.980;2023-07-13T14:52:45;19.50;99.90
5429;DHT22;2737;52.386;9.980;2023-07-13T14:55:15;19.20;99.90
5429;DHT22;2737;52.386;9.980;2023-07-13T14:57:47;19.30;99.90
5429;DHT22;2737;52.386;9.980;2023-07-13T15:00:18;19.40;99.90
5429;DHT22;2737;52.386;9.980;2023-07-13T15:02:49;19.50;99.90
5429;DHT22;2737;52.386;9.980;2023-07-13T15:05:25;19.40;99.90
5429;DHT22;2737;52.386;9.980;2023-07-13T15:07:53;19.40;99.90
5429;DHT22;2737;52.386;9.980;2023-07-13T15:10:22;19.30;99.90
5429;DHT22;2737;52.386;9.980;2023-07-13T15:12:52;19.00;99.90
5429;DHT22;2737;52.386;9.980;2023-07-13T15:15:20;18.90;99.90
5429;DHT22;2737;52.386;9.980;2023-07-13T15:17:48;18.70;99.90
5429;DHT22;2737;52.386;9.980;2023-07-13T15:20:19;18.40;99.90
5429;DHT22;2737;52.386;9.980;2023-07-13T15:22:48;18.20;99.90
5429;DHT22;2737;52.386;9.980;2023-07-13T15:25:17;18.20;99.90
5429;DHT22;2737;52.386;9.980;2023-07-13T15:27:45;18.20;99.90
5429;DHT22;2737;52.386;9.980;2023-07-13T15:30:14;18.20;99.90
5429;DHT22;2737;52.386;9.980;2023-07-13T15:32:42;17.90;99.90
5429;DHT22;2737;52.386;9.980;2023-07-13T15:35:20;17.90;99.90
5429;DHT22;2737;52.386;9.980;2023-07-13T15:37:48;17.90;99.90
5429;DHT22;2737;52.386;9.980;2023-07-13T15:40:16;17.80;99.90
5429;DHT22;2737;52.386;9.980;2023-07-13T15:42:44;17.60;99.90
5429;DHT22;2737;52.386;9.980;2023-07-13T15:45:17;17.70;99.90
5429;DHT22;2737;52.386;9.980;2023-07-13T15:47:45;17.90;99.90
5429;DHT22;2737;52.386;9.980;2023-07-13T15:50:13;17.90;99.90
5429;DHT22;2737;52.386;9.980;2023-07-13T15:52:41;17.90;99.90
5429;DHT22;2737;52.386;9.980;2023-07-13T15:55:11;18.00;99.90
5429;DHT22;2737;52.386;9.980;2023-07-13T15:57:39;17.90;99.90
5429;DHT22;2737;52.386;9.980;2023-07-13T16:00:18;18.00;99.90
5429;DHT22;2737;52.386;9.980;2023-07-13T16:02:47;18.00;99.90
5429;DHT22;2737;52.386;9.980;2023-07-13T16:05:15;18.00;99.90
5429;DHT22;2737;52.386;9.980;2023-07-13T16:07:43;17.90;99.90
5429;DHT22;2737;52.386;9.980;2023-07-13T16:10:16;17.90;99.90
5429;DHT22;2737;52.386;9.980;2023-07-13T16:12:44;18.00;99.90
5429;DHT22;2737;52.386;9.980;2023-07-13T16:15:17;18.00;99.90
5429;DHT22;2737;52.386;9.980;2023-07-13T16:17:47;18.10;99.90
5429;DHT22;2737;52.386;9.980;2023-07-13T16:20:15;18.20;99.90